sensor_id;sensor_type;location;lat;lon;timestamp;pressure;altitude;pressure_sealevel;temperature;humidity
18323;BME280;9287;49.456;11.064;2023-04-07T00:00:22;98192.34;;;3.56;76.14
18323;BME280;9287;49.456;11.064;2023-04-07T00:02:50;98191.34;;;3.52;76.69
18323;BME280;9287;49.456;11.064;2023-04-07T00:05:19;98185.16;;;3.37;77.38
18323;BME280;9287;49.456;11.064;2023-04-07T00:07:47;98180.75;;;3.41;77.29
18323;BME280;9287;49.456;11.064;2023-04-07T00:10:23;98179.38;;;3.44;77.63
18323;BME280;9287;49.456;11.064;2023-04-07T00:12:51;98181.88;;;3.40;77.74
18323;BME280;9287;49.456;11.064;2023-04-07T00:15:19;98177.25;;;3.41;78.41
18323;BME280;9287;49.456;11.064;2023-04-07T00:17:46;98179.94;;;3.13;81.39
18323;BME280;9287;49.456;11.064;2023-04-07T00:20:14;98175.16;;;3.24;81.43
18323;BME280;9287;49.456;11.064;2023-04-07T00:22:44;98178.88;;;3.28;81.41
18323;BME280;9287;49.456;11.064;2023-04-07T00:25:11;98181.38;;;3.38;79.93
18323;BME280;9287;49.456;11.064;2023-04-07T00:27:39;98176.25;;;3.23;79.72
18323;BME280;9287;49.456;11.064;2023-04-07T00:30:07;98180.66;;;3.19;79.26
18323;BME280;9287;49.456;11.064;2023-04-07T00:32:36;98185.75;;;3.21;78.75
18323;BME280;9287;49.456;11.064;2023-04-07T00:35:04;98178.53;;;3.30;78.04
18323;BME280;9287;49.456;11.064;2023-04-07T00:37:32;98179.16;;;3.40;78.29
18323;BME280;9287;49.456;11.064;2023-04-07T00:40:01;98180.75;;;3.41;78.57
18323;BME280;9287;49.456;11.064;2023-04-07T00:42:29;98175.75;;;3.48;79.93
18323;BME280;9287;49.456;11.064;2023-04-07T00:44:57;98178.56;;;3.43;82.66
18323;BME280;9287;49.456;11.064;2023-04-07T00:47:25;98172.53;;;3.46;81.84
18323;BME280;9287;49.456;11.064;2023-04-07T00:49:52;98181.28;;;3.43;82.43
18323;BME280;9287;49.456;11.064;2023-04-07T00:52:23;98181.97;;;3.35;84.12
18323;BME280;9287;49.456;11.064;2023-04-07T00:54:55;98181.88;;;3.40;83.86
18323;BME280;9287;49.456;11.064;2023-04-07T00:57:24;98173.94;;;3.58;79.95
18323;BME280;9287;49.456;11.064;2023-04-07T00:59:54;98187.16;;;3.59;77.08
18323;BME280;9287;49.456;11.064;2023-04-07T01:02:25;98172.34;;;3.57;75.18
18323;BME280;9287;49.456;11.064;2023-04-07T01:05:03;98163.97;;;3.44;74.61
18323;BME280;9287;49.456;11.064;2023-04-07T01:07:35;98154.78;;;3.18;76.98
18323;BME280;9287;49.456;11.064;2023-04-07T01:10:10;98150.97;;;3.19;76.55
18323;BME280;9287;49.456;11.064;2023-04-07T01:12:54;98143.38;;;3.21;76.61
18323;BME280;9287;49.456;11.064;2023-04-07T01:15:25;98145.16;;;3.39;76.48
18323;BME280;9287;49.456;11.064;2023-04-07T01:17:59;98142.19;;;3.41;77.03
18323;BME280;9287;49.456;11.064;2023-04-07T01:20:30;98138.16;;;3.38;76.49
18323;BME280;9287;49.456;11.064;2023-04-07T01:23:03;98132.97;;;3.42;76.04
18323;BME280;9287;49.456;11.064;2023-04-07T01:25:49;98140.16;;;3.60;76.46
18323;BME280;9287;49.456;11.064;2023-04-07T01:28:46;98133.31;;;3.76;75.93
18323;BME280;9287;49.456;11.064;2023-04-07T01:31:18;98133.88;;;3.87;74.35
18323;BME280;9287;49.456;11.064;2023-04-07T01:33:49;98136.91;;;3.72;75.95
18323;BME280;9287;49.456;11.064;2023-04-07T01:36:18;98133.28;;;3.90;75.41
18323;BME280;9287;49.456;11.064;2023-04-07T01:38:48;98131.72;;;3.75;76.06
18323;BME280;9287;49.456;11.064;2023-04-07T01:41:17;98131.28;;;3.82;76.44
18323;BME280;9287;49.456;11.064;2023-04-07T01:43:46;98116.06;;;3.86;77.57
18323;BME280;9287;49.456;11.064;2023-04-07T01:46:14;98116.38;;;3.84;78.63
18323;BME280;9287;49.456;11.064;2023-04-07T01:48:44;98118.28;;;3.84;80.32
18323;BME280;9287;49.456;11.064;2023-04-07T01:51:12;98112.25;;;3.87;79.69
18323;BME280;9287;49.456;11.064;2023-04-07T01:53:43;98109.66;;;3.82;80.22
18323;BME280;9287;49.456;11.064;2023-04-07T01:56:11;98118.09;;;3.80;80.82
18323;BME280;9287;49.456;11.064;2023-04-07T01:58:39;98112.50;;;3.77;79.79
18323;BME280;9287;49.456;11.064;2023-04-07T02:01:07;98114.28;;;3.81;78.99
18323;BME280;9287;49.456;11.064;2023-04-07T02:03:39;98111.91;;;3.80;78.85
18323;BME280;9287;49.456;11.064;2023-04-07T02:06:14;98108.72;;;3.78;79.62
18323;BME280;9287;49.456;11.064;2023-04-07T02:08:46;98109.50;;;3.78;80.90
18323;BME280;9287;49.456;11.064;2023-04-07T02:11:17;98111.75;;;3.63;81.12
18323;BME280;9287;49.456;11.064;2023-04-07T02:13:48;98104.59;;;3.44;82.35
18323;BME280;9287;49.456;11.064;2023-04-07T02:16:19;98104.34;;;3.55;81.53
18323;BME280;9287;49.456;11.064;2023-04-07T02:18:47;98107.22;;;3.72;81.42
18323;BME280;9287;49.456;11.064;2023-04-07T02:21:18;98107.75;;;3.60;82.02
18323;BME280;9287;49.456;11.064;2023-04-07T02:23:46;98104.75;;;3.48;83.57
18323;BME280;9287;49.456;11.064;2023-04-07T02:26:14;98101.88;;;3.44;83.37
18323;BME280;9287;49.456;11.064;2023-04-07T02:28:42;98099.38;;;3.34;83.28
18323;BME280;9287;49.456;11.064;2023-04-07T02:31:10;98090.50;;;3.34;83.62
18323;BME280;9287;49.456;11.064;2023-04-07T02:33:39;98100.94;;;3.49;82.18
18323;BME280;9287;49.456;11.064;2023-04-07T02:36:07;98091.69;;;3.41;80.93
18323;BME280;9287;49.456;11.064;2023-04-07T02:38:36;98096.41;;;3.22;79.64
18323;BME280;9287;49.456;11.064;2023-04-07T02:41:04;98092.78;;;3.40;77.96
18323;BME280;9287;49.456;11.064;2023-04-07T02:43:32;98092.09;;;3.21;78.71
18323;BME280;9287;49.456;11.064;2023-04-07T02:45:59;98091.09;;;3.17;79.87
18323;BME280;9287;49.456;11.064;2023-04-07T02:48:27;98104.81;;;3.07;78.56
18323;BME280;9287;49.456;11.064;2023-04-07T02:50:55;98102.63;;;3.09;79.75
18323;BME280;9287;49.456;11.064;2023-04-07T02:53:22;98104.59;;;3.17;79.89
18323;BME280;9287;49.456;11.064;2023-04-07T02:55:52;98104.22;;;3.10;80.68
18323;BME280;9287;49.456;11.064;2023-04-07T02:58:19;98107.19;;;3.22;80.42
18323;BME280;9287;49.456;11.064;2023-04-07T03:00:47;98096.19;;;3.32;80.73
18323;BME280;9287;49.456;11.064;2023-04-07T03:03:16;98102.41;;;3.19;82.93
18323;BME280;9287;49.456;11.064;2023-04-07T03:05:44;98108.22;;;3.26;83.52
18323;BME280;9287;49.456;11.064;2023-04-07T03:08:12;98102.81;;;3.26;84.56
18323;BME280;9287;49.456;11.064;2023-04-07T03:10:39;98102.09;;;3.34;85.21
18323;BME280;9287;49.456;11.064;2023-04-07T03:13:08;98103.19;;;3.33;84.08
18323;BME280;9287;49.456;11.064;2023-04-07T03:15:38;98094.41;;;3.28;84.76
18323;BME280;9287;49.456;11.064;2023-04-07T03:18:06;98096.00;;;3.29;84.76
18323;BME280;9287;49.456;11.064;2023-04-07T03:20:33;98092.50;;;3.28;86.02
18323;BME280;9287;49.456;11.064;2023-04-07T03:23:01;98093.50;;;3.32;86.31
18323;BME280;9287;49.456;11.064;2023-04-07T03:25:29;98097.09;;;3.41;85.77
18323;BME280;9287;49.456;11.064;2023-04-07T03:27:58;98096.34;;;3.49;85.56
18323;BME280;9287;49.456;11.064;2023-04-07T03:30:27;98087.75;;;3.47;86.92
18323;BME280;9287;49.456;11.064;2023-04-07T03:32:54;98099.56;;;3.52;87.30
18323;BME280;9287;49.456;11.064;2023-04-07T03:35:22;98095.38;;;3.45;87.63
18323;BME280;9287;49.456;11.064;2023-04-07T03:37:50;98090.56;;;3.56;87.27
18323;BME280;9287;49.456;11.064;2023-04-07T03:40:18;98092.16;;;3.57;86.01
18323;BME280;9287;49.456;11.064;2023-04-07T03:42:46;98091.72;;;3.64;88.14
18323;BME280;9287;49.456;11.064;2023-04-07T03:45:14;98092.09;;;3.71;88.39
18323;BME280;9287;49.456;11.064;2023-04-07T03:47:44;98085.72;;;3.67;88.92
18323;BME280;9287;49.456;11.064;2023-04-07T03:50:11;98090.75;;;3.60;89.92
18323;BME280;9287;49.456;11.064;2023-04-07T03:52:39;98083.97;;;3.48;89.05
18323;BME280;9287;49.456;11.064;2023-04-07T03:55:07;98086.16;;;3.46;89.51
18323;BME280;9287;49.456;11.064;2023-04-07T03:57:35;98090.34;;;3.53;89.10
18323;BME280;9287;49.456;11.064;2023-04-07T04:00:04;98089.16;;;3.59;89.14
18323;BME280;9287;49.456;11.064;2023-04-07T04:02:32;98090.97;;;3.49;87.71
18323;BME280;9287;49.456;11.064;2023-04-07T04:05:01;98085.56;;;3.49;87.04
18323;BME280;9287;49.456;11.064;2023-04-07T04:07:29;98083.56;;;3.55;84.74
18323;BME280;9287;49.456;11.064;2023-04-07T04:09:59;98083.16;;;3.62;84.39
18323;BME280;9287;49.456;11.064;2023-04-07T04:12:27;98077.75;;;3.48;86.08
18323;BME280;9287;49.456;11.064;2023-04-07T04:14:55;98083.69;;;3.36;85.99
18323;BME280;9287;49.456;11.064;2023-04-07T04:17:23;98082.19;;;3.44;84.54
18323;BME280;9287;49.456;11.064;2023-04-07T04:19:52;98074.75;;;3.49;84.44
18323;BME280;9287;49.456;11.064;2023-04-07T04:22:22;98077.75;;;3.48;85.24
18323;BME280;9287;49.456;11.064;2023-04-07T04:24:50;98081.88;;;3.45;85.89
18323;BME280;9287;49.456;11.064;2023-04-07T04:27:17;98081.75;;;3.50;85.42
18323;BME280;9287;49.456;11.064;2023-04-07T04:29:45;98087.78;;;3.34;86.85
18323;BME280;9287;49.456;11.064;2023-04-07T04:32:14;98081.28;;;3.35;87.37
18323;BME280;9287;49.456;11.064;2023-04-07T04:34:43;98077.41;;;3.27;88.30
18323;BME280;9287;49.456;11.064;2023-04-07T04:37:11;98073.78;;;3.32;88.67
18323;BME280;9287;49.456;11.064;2023-04-07T04:39:40;98066.31;;;3.15;89.89
18323;BME280;9287;49.456;11.064;2023-04-07T04:42:08;98072.81;;;3.14;89.94
18323;BME280;9287;49.456;11.064;2023-04-07T04:44:36;98075.00;;;3.12;91.31
18323;BME280;9287;49.456;11.064;2023-04-07T04:47:04;98072.22;;;3.17;90.07
18323;BME280;9287;49.456;11.064;2023-04-07T04:49:32;98078.63;;;3.21;89.01
18323;BME280;9287;49.456;11.064;2023-04-07T04:52:00;98079.78;;;3.42;88.07
18323;BME280;9287;49.456;11.064;2023-04-07T04:54:29;98083.97;;;3.48;87.42
18323;BME280;9287;49.456;11.064;2023-04-07T04:56:58;98085.94;;;3.57;86.64
18323;BME280;9287;49.456;11.064;2023-04-07T04:59:27;98084.34;;;3.56;87.83
18323;BME280;9287;49.456;11.064;2023-04-07T05:01:55;98075.25;;;3.52;87.96
18323;BME280;9287;49.456;11.064;2023-04-07T05:04:22;98079.19;;;3.45;89.47
18323;BME280;9287;49.456;11.064;2023-04-07T05:06:50;98086.19;;;3.33;90.20
18323;BME280;9287;49.456;11.064;2023-04-07T05:09:18;98083.97;;;3.48;89.59
18323;BME280;9287;49.456;11.064;2023-04-07T05:11:46;98082.28;;;3.39;89.46
18323;BME280;9287;49.456;11.064;2023-04-07T05:14:15;98088.84;;;3.46;88.44
18323;BME280;9287;49.456;11.064;2023-04-07T05:16:43;98084.75;;;3.63;87.74
18323;BME280;9287;49.456;11.064;2023-04-07T05:19:11;98079.25;;;3.54;88.46
18323;BME280;9287;49.456;11.064;2023-04-07T05:21:39;98075.72;;;3.67;86.83
18323;BME280;9287;49.456;11.064;2023-04-07T05:24:07;98079.16;;;3.81;85.76
18323;BME280;9287;49.456;11.064;2023-04-07T05:26:35;98079.50;;;3.80;84.49
18323;BME280;9287;49.456;11.064;2023-04-07T05:29:03;98084.63;;;3.90;82.86
18323;BME280;9287;49.456;11.064;2023-04-07T05:31:32;98082.69;;;4.04;82.04
18323;BME280;9287;49.456;11.064;2023-04-07T05:34:03;98081.34;;;4.15;79.37
18323;BME280;9287;49.456;11.064;2023-04-07T05:36:32;98079.84;;;4.09;77.88
18323;BME280;9287;49.456;11.064;2023-04-07T05:39:00;98082.56;;;4.09;76.62
18323;BME280;9287;49.456;11.064;2023-04-07T05:41:27;98082.78;;;3.99;77.18
18323;BME280;9287;49.456;11.064;2023-04-07T05:43:55;98076.78;;;4.02;75.98
18323;BME280;9287;49.456;11.064;2023-04-07T05:46:23;98074.34;;;4.14;74.17
18323;BME280;9287;49.456;11.064;2023-04-07T05:48:52;98076.66;;;4.07;73.94
18323;BME280;9287;49.456;11.064;2023-04-07T05:51:20;98079.97;;;4.27;72.58
18323;BME280;9287;49.456;11.064;2023-04-07T05:53:48;98075.31;;;3.96;74.37
18323;BME280;9287;49.456;11.064;2023-04-07T05:56:16;98078.66;;;4.15;74.35
18323;BME280;9287;49.456;11.064;2023-04-07T05:58:44;98078.16;;;4.13;73.74
18323;BME280;9287;49.456;11.064;2023-04-07T06:01:12;98078.25;;;4.31;74.22
18323;BME280;9287;49.456;11.064;2023-04-07T06:03:40;98085.59;;;4.39;74.11
18323;BME280;9287;49.456;11.064;2023-04-07T06:06:09;98091.38;;;4.46;73.76
18323;BME280;9287;49.456;11.064;2023-04-07T06:08:37;98085.59;;;4.39;74.16
18323;BME280;9287;49.456;11.064;2023-04-07T06:11:05;98079.13;;;4.79;72.48
18323;BME280;9287;49.456;11.064;2023-04-07T06:13:33;98083.75;;;4.48;73.27
18323;BME280;9287;49.456;11.064;2023-04-07T06:16:01;98077.81;;;4.68;72.27
18323;BME280;9287;49.456;11.064;2023-04-07T06:18:28;98079.69;;;4.59;73.33
18323;BME280;9287;49.456;11.064;2023-04-07T06:20:56;98082.03;;;4.92;71.40
18323;BME280;9287;49.456;11.064;2023-04-07T06:23:25;98074.53;;;5.45;68.06
18323;BME280;9287;49.456;11.064;2023-04-07T06:25:53;98080.38;;;5.21;67.40
18323;BME280;9287;49.456;11.064;2023-04-07T06:28:20;98080.09;;;5.32;67.37
18323;BME280;9287;49.456;11.064;2023-04-07T06:30:48;98080.28;;;5.35;66.69
18323;BME280;9287;49.456;11.064;2023-04-07T06:33:16;98087.00;;;5.64;65.00
18323;BME280;9287;49.456;11.064;2023-04-07T06:35:44;98086.38;;;5.84;63.83
18323;BME280;9287;49.456;11.064;2023-04-07T06:38:12;98094.19;;;6.11;63.08
18323;BME280;9287;49.456;11.064;2023-04-07T06:40:41;98086.28;;;6.61;60.32
18323;BME280;9287;49.456;11.064;2023-04-07T06:43:09;98082.50;;;7.59;57.39
18323;BME280;9287;49.456;11.064;2023-04-07T06:45:37;98082.03;;;7.57;54.89
18323;BME280;9287;49.456;11.064;2023-04-07T06:48:05;98084.38;;;7.38;55.54
18323;BME280;9287;49.456;11.064;2023-04-07T06:50:33;98076.72;;;7.82;55.08
18323;BME280;9287;49.456;11.064;2023-04-07T06:53:01;98075.38;;;8.29;52.34
18323;BME280;9287;49.456;11.064;2023-04-07T06:55:29;98074.78;;;8.57;51.34
18323;BME280;9287;49.456;11.064;2023-04-07T06:57:58;98076.16;;;9.85;49.32
18323;BME280;9287;49.456;11.064;2023-04-07T07:00:26;98072.63;;;10.68;46.76
18323;BME280;9287;49.456;11.064;2023-04-07T07:02:56;98072.66;;;12.01;43.68
18323;BME280;9287;49.456;11.064;2023-04-07T07:05:24;98071.75;;;13.99;40.51
18323;BME280;9287;49.456;11.064;2023-04-07T07:07:52;98065.13;;;14.67;38.11
18323;BME280;9287;49.456;11.064;2023-04-07T07:10:20;98063.28;;;15.25;37.13
18323;BME280;9287;49.456;11.064;2023-04-07T07:12:48;98060.69;;;14.25;37.73
18323;BME280;9287;49.456;11.064;2023-04-07T07:15:17;98066.13;;;12.89;40.00
18323;BME280;9287;49.456;11.064;2023-04-07T07:17:45;98059.53;;;13.40;39.06
18323;BME280;9287;49.456;11.064;2023-04-07T07:20:13;98076.47;;;13.72;38.79
18323;BME280;9287;49.456;11.064;2023-04-07T07:22:41;98073.34;;;14.33;37.90
18323;BME280;9287;49.456;11.064;2023-04-07T07:25:09;98066.50;;;14.50;37.49
18323;BME280;9287;49.456;11.064;2023-04-07T07:27:37;98063.69;;;14.80;36.93
18323;BME280;9287;49.456;11.064;2023-04-07T07:30:06;98072.41;;;14.22;38.27
18323;BME280;9287;49.456;11.064;2023-04-07T07:32:35;98065.75;;;15.92;35.63
18323;BME280;9287;49.456;11.064;2023-04-07T07:35:04;98079.00;;;15.25;35.45
18323;BME280;9287;49.456;11.064;2023-04-07T07:37:32;98071.88;;;16.51;34.52
18323;BME280;9287;49.456;11.064;2023-04-07T07:39:59;98081.25;;;14.38;37.68
18323;BME280;9287;49.456;11.064;2023-04-07T07:42:28;98083.19;;;15.08;36.31
18323;BME280;9287;49.456;11.064;2023-04-07T07:44:56;98069.50;;;16.39;34.70
18323;BME280;9287;49.456;11.064;2023-04-07T07:47:24;98071.25;;;17.25;33.66
18323;BME280;9287;49.456;11.064;2023-04-07T07:49:54;98075.56;;;15.93;34.33
18323;BME280;9287;49.456;11.064;2023-04-07T07:52:21;98080.63;;;14.48;36.56
18323;BME280;9287;49.456;11.064;2023-04-07T07:54:50;98075.53;;;14.17;37.69
18323;BME280;9287;49.456;11.064;2023-04-07T07:57:17;98076.03;;;14.59;37.27
18323;BME280;9287;49.456;11.064;2023-04-07T07:59:45;98064.09;;;16.82;34.36
18323;BME280;9287;49.456;11.064;2023-04-07T08:02:13;98061.78;;;17.05;33.84
18323;BME280;9287;49.456;11.064;2023-04-07T08:04:41;98056.66;;;17.35;33.49
18323;BME280;9287;49.456;11.064;2023-04-07T08:07:10;98059.09;;;18.63;31.45
18323;BME280;9287;49.456;11.064;2023-04-07T08:09:38;98062.66;;;19.19;30.66
18323;BME280;9287;49.456;11.064;2023-04-07T08:12:06;98063.31;;;17.91;31.34
18323;BME280;9287;49.456;11.064;2023-04-07T08:14:33;98063.63;;;18.95;30.17
18323;BME280;9287;49.456;11.064;2023-04-07T08:17:01;98066.50;;;17.72;32.03
18323;BME280;9287;49.456;11.064;2023-04-07T08:19:29;98061.81;;;19.22;30.68
18323;BME280;9287;49.456;11.064;2023-04-07T08:21:56;98056.28;;;20.72;28.87
18323;BME280;9287;49.456;11.064;2023-04-07T08:24:27;98059.06;;;19.70;29.86
18323;BME280;9287;49.456;11.064;2023-04-07T08:26:55;98056.34;;;20.04;30.33
18323;BME280;9287;49.456;11.064;2023-04-07T08:29:22;98053.34;;;21.37;28.81
18323;BME280;9287;49.456;11.064;2023-04-07T08:31:50;98055.94;;;21.47;27.81
18323;BME280;9287;49.456;11.064;2023-04-07T08:34:18;98048.38;;;20.71;28.73
18323;BME280;9287;49.456;11.064;2023-04-07T08:36:46;98059.16;;;18.38;30.81
18323;BME280;9287;49.456;11.064;2023-04-07T08:39:14;98059.41;;;16.93;33.89
18323;BME280;9287;49.456;11.064;2023-04-07T08:41:43;98055.47;;;17.01;33.44
18323;BME280;9287;49.456;11.064;2023-04-07T08:44:12;98051.78;;;15.60;35.86
18323;BME280;9287;49.456;11.064;2023-04-07T08:46:42;98057.16;;;14.54;37.66
18323;BME280;9287;49.456;11.064;2023-04-07T08:49:11;98058.03;;;14.66;37.67
18323;BME280;9287;49.456;11.064;2023-04-07T08:51:44;98056.66;;;14.45;38.38
18323;BME280;9287;49.456;11.064;2023-04-07T08:54:13;98057.81;;;14.44;38.94
18323;BME280;9287;49.456;11.064;2023-04-07T08:56:43;98059.47;;;14.19;38.95
18323;BME280;9287;49.456;11.064;2023-04-07T08:59:13;98052.78;;;14.20;39.55
18323;BME280;9287;49.456;11.064;2023-04-07T09:01:41;98052.72;;;14.13;39.77
18323;BME280;9287;49.456;11.064;2023-04-07T09:04:09;98066.66;;;13.71;40.65
18323;BME280;9287;49.456;11.064;2023-04-07T09:06:37;98064.28;;;14.29;40.22
18323;BME280;9287;49.456;11.064;2023-04-07T09:09:05;98059.44;;;14.49;40.02
18323;BME280;9287;49.456;11.064;2023-04-07T09:11:34;98066.47;;;13.86;40.28
18323;BME280;9287;49.456;11.064;2023-04-07T09:14:04;98055.97;;;14.96;38.07
18323;BME280;9287;49.456;11.064;2023-04-07T09:16:32;98060.78;;;13.72;39.79
18323;BME280;9287;49.456;11.064;2023-04-07T09:18:59;98058.63;;;15.33;37.61
18323;BME280;9287;49.456;11.064;2023-04-07T09:21:46;98046.38;;;15.78;37.26
18323;BME280;9287;49.456;11.064;2023-04-07T09:24:21;98049.78;;;16.33;36.72
18323;BME280;9287;49.456;11.064;2023-04-07T09:26:49;98044.41;;;16.73;35.98
18323;BME280;9287;49.456;11.064;2023-04-07T09:29:21;98039.69;;;17.37;34.53
18323;BME280;9287;49.456;11.064;2023-04-07T09:31:50;98045.19;;;16.77;34.57
18323;BME280;9287;49.456;11.064;2023-04-07T09:34:25;98042.06;;;17.10;34.77
18323;BME280;9287;49.456;11.064;2023-04-07T09:36:53;98040.44;;;17.80;34.21
18323;BME280;9287;49.456;11.064;2023-04-07T09:39:22;98051.34;;;18.23;33.98
18323;BME280;9287;49.456;11.064;2023-04-07T09:41:49;98047.19;;;17.29;34.62
18323;BME280;9287;49.456;11.064;2023-04-07T09:44:18;98044.00;;;16.70;35.23
18323;BME280;9287;49.456;11.064;2023-04-07T09:46:51;98041.66;;;15.75;37.34
18323;BME280;9287;49.456;11.064;2023-04-07T09:49:19;98037.81;;;15.97;36.46
18323;BME280;9287;49.456;11.064;2023-04-07T09:51:54;98036.22;;;15.89;36.69
18323;BME280;9287;49.456;11.064;2023-04-07T09:54:33;98035.50;;;16.07;36.51
18323;BME280;9287;49.456;11.064;2023-04-07T09:57:02;98021.56;;;16.90;34.70
18323;BME280;9287;49.456;11.064;2023-04-07T09:59:31;98032.53;;;16.58;35.28
18323;BME280;9287;49.456;11.064;2023-04-07T10:02:02;98031.44;;;17.09;34.34
18323;BME280;9287;49.456;11.064;2023-04-07T10:04:31;98026.28;;;17.00;35.24
18323;BME280;9287;49.456;11.064;2023-04-07T10:06:59;98034.53;;;17.57;34.85
18323;BME280;9287;49.456;11.064;2023-04-07T10:09:29;98034.97;;;17.37;34.54
18323;BME280;9287;49.456;11.064;2023-04-07T10:11:58;98022.72;;;17.70;34.14
18323;BME280;9287;49.456;11.064;2023-04-07T10:14:29;98034.16;;;17.55;33.99
18323;BME280;9287;49.456;11.064;2023-04-07T10:16:59;98025.47;;;18.68;33.20
18323;BME280;9287;49.456;11.064;2023-04-07T10:19:31;98024.72;;;19.61;30.76
18323;BME280;9287;49.456;11.064;2023-04-07T10:22:01;98017.44;;;20.72;30.13
18323;BME280;9287;49.456;11.064;2023-04-07T10:24:39;98024.00;;;20.85;29.32
18323;BME280;9287;49.456;11.064;2023-04-07T10:27:13;98019.47;;;21.88;27.24
18323;BME280;9287;49.456;11.064;2023-04-07T10:29:42;98022.06;;;20.22;29.15
18323;BME280;9287;49.456;11.064;2023-04-07T10:32:11;98025.53;;;21.13;28.91
18323;BME280;9287;49.456;11.064;2023-04-07T10:34:58;98012.47;;;21.37;27.76
18323;BME280;9287;49.456;11.064;2023-04-07T10:37:26;98022.91;;;20.19;28.78
18323;BME280;9287;49.456;11.064;2023-04-07T10:40:28;98023.06;;;19.22;30.61
18323;BME280;9287;49.456;11.064;2023-04-07T10:42:57;98018.91;;;19.52;30.23
18323;BME280;9287;49.456;11.064;2023-04-07T10:45:55;98030.66;;;19.15;30.90
18323;BME280;9287;49.456;11.064;2023-04-07T10:48:25;98025.97;;;18.42;30.58
18323;BME280;9287;49.456;11.064;2023-04-07T10:51:13;98021.41;;;18.03;31.64
18323;BME280;9287;49.456;11.064;2023-04-07T10:57:06;98022.59;;;18.02;31.65
18323;BME280;9287;49.456;11.064;2023-04-07T10:59:36;98026.03;;;18.35;31.65
18323;BME280;9287;49.456;11.064;2023-04-07T11:02:32;98010.19;;;18.39;31.86
18323;BME280;9287;49.456;11.064;2023-04-07T11:05:01;98009.31;;;18.63;30.82
18323;BME280;9287;49.456;11.064;2023-04-07T11:07:44;98012.47;;;18.58;31.00
18323;BME280;9287;49.456;11.064;2023-04-07T11:10:13;98015.50;;;18.82;30.60
18323;BME280;9287;49.456;11.064;2023-04-07T11:12:42;98013.28;;;18.59;30.71
18323;BME280;9287;49.456;11.064;2023-04-07T11:15:17;98007.34;;;17.66;32.25
18323;BME280;9287;49.456;11.064;2023-04-07T11:17:45;97999.22;;;18.25;32.00
18323;BME280;9287;49.456;11.064;2023-04-07T11:20:12;97998.31;;;18.49;31.49
18323;BME280;9287;49.456;11.064;2023-04-07T11:22:40;98003.38;;;17.81;32.33
18323;BME280;9287;49.456;11.064;2023-04-07T11:25:20;97992.34;;;17.53;32.16
18323;BME280;9287;49.456;11.064;2023-04-07T11:27:53;97994.38;;;16.92;33.08
18323;BME280;9287;49.456;11.064;2023-04-07T11:30:20;97987.66;;;17.43;32.54
18323;BME280;9287;49.456;11.064;2023-04-07T11:32:50;97993.19;;;17.07;32.74
18323;BME280;9287;49.456;11.064;2023-04-07T11:35:18;97987.84;;;18.82;31.03
18323;BME280;9287;49.456;11.064;2023-04-07T11:37:46;97993.56;;;19.53;30.35
18323;BME280;9287;49.456;11.064;2023-04-07T11:40:30;97993.19;;;19.47;31.06
18323;BME280;9287;49.456;11.064;2023-04-07T11:42:58;97984.88;;;19.47;30.13
18323;BME280;9287;49.456;11.064;2023-04-07T11:45:26;97983.88;;;19.72;30.09
18323;BME280;9287;49.456;11.064;2023-04-07T11:47:54;97989.00;;;20.07;29.36
18323;BME280;9287;49.456;11.064;2023-04-07T11:50:38;97991.50;;;19.20;30.53
18323;BME280;9287;49.456;11.064;2023-04-07T11:53:10;97985.03;;;19.33;30.17
18323;BME280;9287;49.456;11.064;2023-04-07T11:55:40;97984.31;;;19.67;30.02
18323;BME280;9287;49.456;11.064;2023-04-07T11:58:08;97987.25;;;19.53;29.63
18323;BME280;9287;49.456;11.064;2023-04-07T12:00:52;97981.31;;;20.49;28.97
18323;BME280;9287;49.456;11.064;2023-04-07T12:03:20;97978.75;;;20.62;29.29
18323;BME280;9287;49.456;11.064;2023-04-07T12:05:48;97973.66;;;20.83;29.09
18323;BME280;9287;49.456;11.064;2023-04-07T12:08:16;97974.19;;;20.17;29.21
18323;BME280;9287;49.456;11.064;2023-04-07T12:10:46;97972.09;;;18.71;31.79
18323;BME280;9287;49.456;11.064;2023-04-07T12:13:14;97981.34;;;17.46;32.63
18323;BME280;9287;49.456;11.064;2023-04-07T12:15:43;97978.22;;;17.15;33.47
18323;BME280;9287;49.456;11.064;2023-04-07T12:18:14;97970.31;;;17.24;33.11
18323;BME280;9287;49.456;11.064;2023-04-07T12:20:43;97982.63;;;18.25;32.54
18323;BME280;9287;49.456;11.064;2023-04-07T12:23:11;97975.78;;;17.60;33.16
18323;BME280;9287;49.456;11.064;2023-04-07T12:25:39;97970.94;;;17.99;32.82
18323;BME280;9287;49.456;11.064;2023-04-07T12:28:08;97975.81;;;17.38;33.14
18323;BME280;9287;49.456;11.064;2023-04-07T12:30:36;97979.78;;;17.16;33.89
18323;BME280;9287;49.456;11.064;2023-04-07T12:33:04;97979.78;;;16.81;33.83
18323;BME280;9287;49.456;11.064;2023-04-07T12:35:32;97978.97;;;17.40;33.96
18323;BME280;9287;49.456;11.064;2023-04-07T12:38:01;97974.69;;;16.79;34.35
18323;BME280;9287;49.456;11.064;2023-04-07T12:40:29;97967.19;;;16.73;35.13
18323;BME280;9287;49.456;11.064;2023-04-07T12:42:57;97978.13;;;16.30;34.96
18323;BME280;9287;49.456;11.064;2023-04-07T12:45:26;97971.72;;;15.90;36.74
18323;BME280;9287;49.456;11.064;2023-04-07T12:47:56;97981.78;;;15.58;36.73
18323;BME280;9287;49.456;11.064;2023-04-07T12:50:24;97982.47;;;15.48;36.71
18323;BME280;9287;49.456;11.064;2023-04-07T12:52:52;97977.28;;;16.05;35.99
18323;BME280;9287;49.456;11.064;2023-04-07T12:55:20;97975.84;;;16.60;35.64
18323;BME280;9287;49.456;11.064;2023-04-07T12:57:48;97970.59;;;16.16;36.26
18323;BME280;9287;49.456;11.064;2023-04-07T13:00:15;97962.28;;;15.91;37.87
18323;BME280;9287;49.456;11.064;2023-04-07T13:02:44;97972.75;;;15.61;36.98
18323;BME280;9287;49.456;11.064;2023-04-07T13:05:12;97983.38;;;15.08;37.99
18323;BME280;9287;49.456;11.064;2023-04-07T13:07:40;97982.91;;;14.95;38.06
18323;BME280;9287;49.456;11.064;2023-04-07T13:10:08;97982.34;;;14.72;38.50
18323;BME280;9287;49.456;11.064;2023-04-07T13:12:36;97984.72;;;14.77;38.52
18323;BME280;9287;49.456;11.064;2023-04-07T13:15:06;97976.44;;;14.73;38.50
18323;BME280;9287;49.456;11.064;2023-04-07T13:17:33;97980.34;;;14.72;38.44
18323;BME280;9287;49.456;11.064;2023-04-07T13:20:06;97979.84;;;15.07;38.85